sensor_id;sensor_type;location;lat;lon;timestamp;temperature;humidity
56771;DHT22;42641;59.794;17.616;2023-11-18T00:01:58;1.00;99.90
56771;DHT22;42641;59.794;17.616;2023-11-18T00:04:25;1.10;99.90
56771;DHT22;42641;59.794;17.616;2023-11-18T00:06:51;1.10;99.90
56771;DHT22;42641;59.794;17.616;2023-11-18T00:09:18;1.10;99.90
56771;DHT22;42641;59.794;17.616;2023-11-18T00:11:46;1.10;99.90
56771;DHT22;42641;59.794;17.616;2023-11-18T00:14:12;1.10;99.90
56771;DHT22;42641;59.794;17.616;2023-11-18T00:16:39;1.10;99.90
56771;DHT22;42641;59.794;17.616;2023-11-18T00:19:05;1.10;99.90
56771;DHT22;42641;59.794;17.616;2023-11-18T00:21:35;1.00;99.90
56771;DHT22;42641;59.794;17.616;2023-11-18T00:24:02;1.00;99.90
56771;DHT22;42641;59.794;17.616;2023-11-18T00:26:28;1.00;99.90
56771;DHT22;42641;59.794;17.616;2023-11-18T00:28:59;1.00;99.90
56771;DHT22;42641;59.794;17.616;2023-11-18T00:31:26;1.00;99.90
56771;DHT22;42641;59.794;17.616;2023-11-18T00:33:54;1.00;99.90
56771;DHT22;42641;59.794;17.616;2023-11-18T00:36:21;1.00;99.90
56771;DHT22;42641;59.794;17.616;2023-11-18T00:38:48;1.00;99.90
56771;DHT22;42641;59.794;17.616;2023-11-18T00:41:15;1.00;99.90
56771;DHT22;42641;59.794;17.616;2023-11-18T00:43:43;0.90;99.90
56771;DHT22;42641;59.794;17.616;2023-11-18T00:46:10;0.90;99.90
56771;DHT22;42641;59.794;17.616;2023-11-18T00:48:38;0.90;99.90
56771;DHT22;42641;59.794;17.616;2023-11-18T00:51:06;1.00;99.90
56771;DHT22;42641;59.794;17.616;2023-11-18T00:53:32;1.00;99.90
56771;DHT22;42641;59.794;17.616;2023-11-18T00:56:01;1.00;99.90
56771;DHT22;42641;59.794;17.616;2023-11-18T00:58:28;1.00;99.90
56771;DHT22;42641;59.794;17.616;2023-11-18T01:00:55;1.00;99.90
56771;DHT22;42641;59.794;17.616;2023-11-18T01:03:21;1.10;99.90
56771;DHT22;42641;59.794;17.616;2023-11-18T01:05:48;1.10;99.90
56771;DHT22;42641;59.794;17.616;2023-11-18T01:08:15;1.10;99.90
56771;DHT22;42641;59.794;17.616;2023-11-18T01:10:42;1.10;99.90
56771;DHT22;42641;59.794;17.616;2023-11-18T01:13:08;1.20;99.90
56771;DHT22;42641;59.794;17.616;2023-11-18T01:15:35;1.20;99.90
56771;DHT22;42641;59.794;17.616;2023-11-18T01:18:01;1.20;99.90
56771;DHT22;42641;59.794;17.616;2023-11-18T01:20:28;1.20;99.90
56771;DHT22;42641;59.794;17.616;2023-11-18T01:22:54;1.20;99.90
56771;DHT22;42641;59.794;17.616;2023-11-18T01:25:21;1.30;99.90
56771;DHT22;42641;59.794;17.616;2023-11-18T01:27:48;1.30;99.90
56771;DHT22;42641;59.794;17.616;2023-11-18T01:30:14;1.30;99.90
56771;DHT22;42641;59.794;17.616;2023-11-18T01:32:41;1.20;99.90
56771;DHT22;42641;59.794;17.616;2023-11-18T01:35:09;1.20;99.90
56771;DHT22;42641;59.794;17.616;2023-11-18T01:37:37;1.20;99.90
56771;DHT22;42641;59.794;17.616;2023-11-18T01:40:04;1.20;99.90
56771;DHT22;42641;59.794;17.616;2023-11-18T01:42:34;1.20;99.90
56771;DHT22;42641;59.794;17.616;2023-11-18T01:45:01;1.10;99.90
56771;DHT22;42641;59.794;17.616;2023-11-18T01:47:32;1.10;99.90
56771;DHT22;42641;59.794;17.616;2023-11-18T01:50:00;1.10;99.90
56771;DHT22;42641;59.794;17.616;2023-11-18T01:52:28;1.10;99.90
56771;DHT22;42641;59.794;17.616;2023-11-18T01:54:56;1.10;99.90
56771;DHT22;42641;59.794;17.616;2023-11-18T01:57:23;1.10;99.90
56771;DHT22;42641;59.794;17.616;2023-11-18T01:59:49;1.10;99.90
56771;DHT22;42641;59.794;17.616;2023-11-18T02:02:16;1.10;99.90
56771;DHT22;42641;59.794;17.616;2023-11-18T02:04:42;1.10;99.90
56771;DHT22;42641;59.794;17.616;2023-11-18T02:07:11;1.10;99.90
56771;DHT22;42641;59.794;17.616;2023-11-18T02:09:41;1.10;99.90
56771;DHT22;42641;59.794;17.616;2023-11-18T02:12:21;1.10;99.90
56771;DHT22;42641;59.794;17.616;2023-11-18T02:14:50;1.10;99.90
56771;DHT22;42641;59.794;17.616;2023-11-18T02:17:19;1.10;99.90
56771;DHT22;42641;59.794;17.616;2023-11-18T02:19:46;1.10;99.90
56771;DHT22;42641;59.794;17.616;2023-11-18T02:22:13;1.10;99.90
56771;DHT22;42641;59.794;17.616;2023-11-18T02:24:39;1.10;99.90
56771;DHT22;42641;59.794;17.616;2023-11-18T02:27:07;1.10;99.90
56771;DHT22;42641;59.794;17.616;2023-11-18T02:29:42;1.20;99.90
56771;DHT22;42641;59.794;17.616;2023-11-18T02:32:25;1.10;99.90
56771;DHT22;42641;59.794;17.616;2023-11-18T02:35:09;1.00;99.90
56771;DHT22;42641;59.794;17.616;2023-11-18T02:37:40;1.00;99.90
56771;DHT22;42641;59.794;17.616;2023-11-18T02:40:14;0.90;99.90
56771;DHT22;42641;59.794;17.616;2023-11-18T02:42:46;1.00;99.90
56771;DHT22;42641;59.794;17.616;2023-11-18T02:45:17;1.00;99.90
56771;DHT22;42641;59.794;17.616;2023-11-18T02:47:44;0.90;99.90
56771;DHT22;42641;59.794;17.616;2023-11-18T02:50:11;1.00;99.90
56771;DHT22;42641;59.794;17.616;2023-11-18T02:52:39;1.10;99.90
56771;DHT22;42641;59.794;17.616;2023-11-18T02:55:06;1.00;99.90
56771;DHT22;42641;59.794;17.616;2023-11-18T02:57:38;1.00;99.90
56771;DHT22;42641;59.794;17.616;2023-11-18T03:00:06;0.90;99.90
56771;DHT22;42641;59.794;17.616;2023-11-18T03:02:37;0.80;99.90
56771;DHT22;42641;59.794;17.616;2023-11-18T03:05:08;0.90;99.90
56771;DHT22;42641;59.794;17.616;2023-11-18T03:07:41;0.80;99.90
56771;DHT22;42641;59.794;17.616;2023-11-18T03:10:08;0.80;99.90
56771;DHT22;42641;59.794;17.616;2023-11-18T03:12:53;0.80;99.90
56771;DHT22;42641;59.794;17.616;2023-11-18T03:15:21;0.70;99.90
56771;DHT22;42641;59.794;17.616;2023-11-18T03:17:50;0.70;99.90
56771;DHT22;42641;59.794;17.616;2023-11-18T03:20:18;0.70;99.90
56771;DHT22;42641;59.794;17.616;2023-11-18T03:22:47;0.90;99.90
56771;DHT22;42641;59.794;17.616;2023-11-18T03:25:15;0.90;99.90
56771;DHT22;42641;59.794;17.616;2023-11-18T03:27:43;0.90;99.90
56771;DHT22;42641;59.794;17.616;2023-11-18T03:30:13;0.90;99.90
56771;DHT22;42641;59.794;17.616;2023-11-18T03:32:40;0.90;99.90
56771;DHT22;42641;59.794;17.616;2023-11-18T03:35:07;0.90;99.90
56771;DHT22;42641;59.794;17.616;2023-11-18T03:37:37;0.90;99.90
56771;DHT22;42641;59.794;17.616;2023-11-18T03:40:12;0.80;99.90
56771;DHT22;42641;59.794;17.616;2023-11-18T03:42:39;0.60;99.90
56771;DHT22;42641;59.794;17.616;2023-11-18T03:45:06;0.50;99.90
56771;DHT22;42641;59.794;17.616;2023-11-18T03:47:33;0.50;99.90
56771;DHT22;42641;59.794;17.616;2023-11-18T03:50:00;0.40;99.90
56771;DHT22;42641;59.794;17.616;2023-11-18T03:52:28;0.40;99.90
56771;DHT22;42641;59.794;17.616;2023-11-18T03:54:55;0.30;99.90
56771;DHT22;42641;59.794;17.616;2023-11-18T03:57:22;0.20;99.90
56771;DHT22;42641;59.794;17.616;2023-11-18T03:59:48;0.20;99.90
56771;DHT22;42641;59.794;17.616;2023-11-18T04:02:14;0.20;99.90
56771;DHT22;42641;59.794;17.616;2023-11-18T04:04:41;0.10;99.90
56771;DHT22;42641;59.794;17.616;2023-11-18T04:07:07;0.10;99.90
56771;DHT22;42641;59.794;17.616;2023-11-18T04:09:34;0.10;99.90
56771;DHT22;42641;59.794;17.616;2023-11-18T04:12:00;0.00;99.90
56771;DHT22;42641;59.794;17.616;2023-11-18T04:14:27;0.00;99.90
56771;DHT22;42641;59.794;17.616;2023-11-18T04:16:53;-0.10;99.90
56771;DHT22;42641;59.794;17.616;2023-11-18T04:19:21;-0.10;99.90
56771;DHT22;42641;59.794;17.616;2023-11-18T04:21:47;-0.10;99.90
56771;DHT22;42641;59.794;17.616;2023-11-18T04:24:15;-0.10;99.90
56771;DHT22;42641;59.794;17.616;2023-11-18T04:26:42;-0.20;99.90
56771;DHT22;42641;59.794;17.616;2023-11-18T04:29:08;-0.20;99.90
56771;DHT22;42641;59.794;17.616;2023-11-18T04:31:35;-0.20;99.90
56771;DHT22;42641;59.794;17.616;2023-11-18T04:34:03;-0.20;99.90
56771;DHT22;42641;59.794;17.616;2023-11-18T04:36:33;-0.10;99.90
56771;DHT22;42641;59.794;17.616;2023-11-18T04:38:59;-0.20;99.90
56771;DHT22;42641;59.794;17.616;2023-11-18T04:41:26;-0.30;99.90
56771;DHT22;42641;59.794;17.616;2023-11-18T04:43:52;-0.30;99.90
56771;DHT22;42641;59.794;17.616;2023-11-18T04:46:19;-0.30;99.90
56771;DHT22;42641;59.794;17.616;2023-11-18T04:48:46;-0.30;99.90
56771;DHT22;42641;59.794;17.616;2023-11-18T04:51:12;-0.30;99.90
56771;DHT22;42641;59.794;17.616;2023-11-18T04:53:38;-0.30;99.90
56771;DHT22;42641;59.794;17.616;2023-11-18T04:56:06;-0.50;99.90
56771;DHT22;42641;59.794;17.616;2023-11-18T04:58:39;-0.70;99.90
56771;DHT22;42641;59.794;17.616;2023-11-18T05:01:06;-0.70;99.90
56771;DHT22;42641;59.794;17.616;2023-11-18T05:03:32;-0.80;99.90
56771;DHT22;42641;59.794;17.616;2023-11-18T05:05:59;-0.80;99.90
56771;DHT22;42641;59.794;17.616;2023-11-18T05:08:25;-0.70;99.90
56771;DHT22;42641;59.794;17.616;2023-11-18T05:10:52;-0.70;99.90
56771;DHT22;42641;59.794;17.616;2023-11-18T05:13:18;-0.70;99.90
56771;DHT22;42641;59.794;17.616;2023-11-18T05:15:46;-0.70;99.90
56771;DHT22;42641;59.794;17.616;2023-11-18T05:18:13;-0.80;99.90
56771;DHT22;42641;59.794;17.616;2023-11-18T05:20:44;-0.80;99.90
56771;DHT22;42641;59.794;17.616;2023-11-18T05:23:11;-0.80;99.90
56771;DHT22;42641;59.794;17.616;2023-11-18T05:25:42;-1.00;99.90
56771;DHT22;42641;59.794;17.616;2023-11-18T05:28:11;-1.10;99.90
56771;DHT22;42641;59.794;17.616;2023-11-18T05:30:40;-1.10;99.90
56771;DHT22;42641;59.794;17.616;2023-11-18T05:33:07;-1.20;99.90
56771;DHT22;42641;59.794;17.616;2023-11-18T05:35:35;-1.10;99.90
56771;DHT22;42641;59.794;17.616;2023-11-18T05:38:02;-1.10;99.90
56771;DHT22;42641;59.794;17.616;2023-11-18T05:40:32;-1.20;99.90
56771;DHT22;42641;59.794;17.616;2023-11-18T05:42:58;-1.10;99.90
56771;DHT22;42641;59.794;17.616;2023-11-18T05:45:25;-1.30;99.90
56771;DHT22;42641;59.794;17.616;2023-11-18T05:47:55;-1.30;99.90
56771;DHT22;42641;59.794;17.616;2023-11-18T05:50:22;-1.40;99.90
56771;DHT22;42641;59.794;17.616;2023-11-18T05:52:50;-1.50;99.90
56771;DHT22;42641;59.794;17.616;2023-11-18T05:55:17;-1.60;99.90
56771;DHT22;42641;59.794;17.616;2023-11-18T05:57:43;-1.50;99.90
56771;DHT22;42641;59.794;17.616;2023-11-18T06:00:15;-1.40;99.90
56771;DHT22;42641;59.794;17.616;2023-11-18T06:02:42;-1.30;99.90
56771;DHT22;42641;59.794;17.616;2023-11-18T06:05:09;-1.30;99.90
56771;DHT22;42641;59.794;17.616;2023-11-18T06:07:36;-1.30;99.90
56771;DHT22;42641;59.794;17.616;2023-11-18T06:10:03;-1.30;99.90
56771;DHT22;42641;59.794;17.616;2023-11-18T06:12:31;-1.30;99.90
56771;DHT22;42641;59.794;17.616;2023-11-18T06:14:59;-1.30;99.90
56771;DHT22;42641;59.794;17.616;2023-11-18T06:17:25;-1.30;99.90
56771;DHT22;42641;59.794;17.616;2023-11-18T06:19:54;-1.30;99.90
56771;DHT22;42641;59.794;17.616;2023-11-18T06:22:20;-1.40;99.90
56771;DHT22;42641;59.794;17.616;2023-11-18T06:24:47;-1.40;99.90
56771;DHT22;42641;59.794;17.616;2023-11-18T06:27:13;-1.50;99.90
56771;DHT22;42641;59.794;17.616;2023-11-18T06:29:39;-1.60;99.90
56771;DHT22;42641;59.794;17.616;2023-11-18T06:32:06;-1.60;99.90
56771;DHT22;42641;59.794;17.616;2023-11-18T06:34:34;-1.50;99.90
56771;DHT22;42641;59.794;17.616;2023-11-18T06:37:01;-1.60;99.90
56771;DHT22;42641;59.794;17.616;2023-11-18T06:39:27;-1.70;99.90
56771;DHT22;42641;59.794;17.616;2023-11-18T06:41:56;-1.70;99.90
56771;DHT22;42641;59.794;17.616;2023-11-18T06:44:25;-1.80;99.90
56771;DHT22;42641;59.794;17.616;2023-11-18T06:46:51;-1.80;99.90
56771;DHT22;42641;59.794;17.616;2023-11-18T06:49:18;-1.70;99.90
56771;DHT22;42641;59.794;17.616;2023-11-18T06:51:45;-1.80;99.90
56771;DHT22;42641;59.794;17.616;2023-11-18T06:54:12;-1.80;99.90
56771;DHT22;42641;59.794;17.616;2023-11-18T06:56:41;-1.90;99.90
56771;DHT22;42641;59.794;17.616;2023-11-18T06:59:12;-1.90;99.90
56771;DHT22;42641;59.794;17.616;2023-11-18T07:01:39;-1.80;99.90
56771;DHT22;42641;59.794;17.616;2023-11-18T07:04:10;-1.70;99.90
56771;DHT22;42641;59.794;17.616;2023-11-18T07:06:37;-1.70;99.90
56771;DHT22;42641;59.794;17.616;2023-11-18T07:09:09;-1.70;99.90
56771;DHT22;42641;59.794;17.616;2023-11-18T07:11:44;-1.60;99.90
56771;DHT22;42641;59.794;17.616;2023-11-18T07:14:13;-1.60;99.90
56771;DHT22;42641;59.794;17.616;2023-11-18T07:16:41;-1.60;99.90
56771;DHT22;42641;59.794;17.616;2023-11-18T07:19:09;-1.60;99.90
56771;DHT22;42641;59.794;17.616;2023-11-18T07:21:46;-1.60;99.90
56771;DHT22;42641;59.794;17.616;2023-11-18T07:24:13;-1.80;99.90
56771;DHT22;42641;59.794;17.616;2023-11-18T07:26:39;-1.80;99.90
56771;DHT22;42641;59.794;17.616;2023-11-18T07:29:09;-1.80;99.90
56771;DHT22;42641;59.794;17.616;2023-11-18T07:31:35;-1.80;99.90
56771;DHT22;42641;59.794;17.616;2023-11-18T07:34:05;-1.90;99.90
56771;DHT22;42641;59.794;17.616;2023-11-18T07:36:34;-2.00;99.90
56771;DHT22;42641;59.794;17.616;2023-11-18T07:39:00;-2.20;99.90
56771;DHT22;42641;59.794;17.616;2023-11-18T07:41:30;-2.30;99.90
56771;DHT22;42641;59.794;17.616;2023-11-18T07:43:57;-2.30;99.90
56771;DHT22;42641;59.794;17.616;2023-11-18T07:46:25;-2.30;99.90
56771;DHT22;42641;59.794;17.616;2023-11-18T07:48:53;-2.10;99.90
56771;DHT22;42641;59.794;17.616;2023-11-18T07:51:20;-2.10;99.90
56771;DHT22;42641;59.794;17.616;2023-11-18T07:53:50;-2.10;99.90
56771;DHT22;42641;59.794;17.616;2023-11-18T07:56:17;-2.00;99.90
56771;DHT22;42641;59.794;17.616;2023-11-18T07:58:44;-1.90;99.90
56771;DHT22;42641;59.794;17.616;2023-11-18T08:01:14;-1.90;99.90
56771;DHT22;42641;59.794;17.616;2023-11-18T08:03:43;-2.10;99.90
56771;DHT22;42641;59.794;17.616;2023-11-18T08:06:11;-2.30;99.90
56771;DHT22;42641;59.794;17.616;2023-11-18T08:08:38;-2.50;99.90
56771;DHT22;42641;59.794;17.616;2023-11-18T08:11:05;-2.50;99.90
56771;DHT22;42641;59.794;17.616;2023-11-18T08:13:32;-2.50;99.90
56771;DHT22;42641;59.794;17.616;2023-11-18T08:15:59;-2.60;99.90
56771;DHT22;42641;59.794;17.616;2023-11-18T08:18:25;-2.60;99.90
56771;DHT22;42641;59.794;17.616;2023-11-18T08:20:53;-2.50;99.90
56771;DHT22;42641;59.794;17.616;2023-11-18T08:23:20;-2.50;99.90
56771;DHT22;42641;59.794;17.616;2023-11-18T08:25:46;-2.50;99.90
56771;DHT22;42641;59.794;17.616;2023-11-18T08:37:09;-2.50;99.90
56771;DHT22;42641;59.794;17.616;2023-11-18T09:10:06;-2.60;99.90
56771;DHT22;42641;59.794;17.616;2023-11-18T09:18:45;-2.40;99.90
56771;DHT22;42641;59.794;17.616;2023-11-18T09:27:19;-2.30;99.90
56771;DHT22;42641;59.794;17.616;2023-11-18T09:29:45;-2.50;99.90
56771;DHT22;42641;59.794;17.616;2023-11-18T09:38:05;-2.40;99.90
56771;DHT22;42641;59.794;17.616;2023-11-18T09:40:32;-2.30;99.90
56771;DHT22;42641;59.794;17.616;2023-11-18T09:43:04;-2.30;99.90
56771;DHT22;42641;59.794;17.616;2023-11-18T09:45:35;-2.20;99.90
56771;DHT22;42641;59.794;17.616;2023-11-18T09:48:03;-2.10;99.90
56771;DHT22;42641;59.794;17.616;2023-11-18T09:50:33;-2.10;99.90
56771;DHT22;42641;59.794;17.616;2023-11-18T09:53:08;-2.00;99.90
56771;DHT22;42641;59.794;17.616;2023-11-18T09:55:44;-1.90;99.90
56771;DHT22;42641;59.794;17.616;2023-11-18T09:58:16;-1.80;99.90
56771;DHT22;42641;59.794;17.616;2023-11-18T10:00:47;-1.60;99.90
56771;DHT22;42641;59.794;17.616;2023-11-18T10:03:17;-1.50;99.90
56771;DHT22;42641;59.794;17.616;2023-11-18T10:05:44;-1.50;99.90
56771;DHT22;42641;59.794;17.616;2023-11-18T10:08:11;-1.50;99.90
56771;DHT22;42641;59.794;17.616;2023-11-18T10:10:37;-1.60;99.90
56771;DHT22;42641;59.794;17.616;2023-11-18T10:13:04;-1.60;99.90
56771;DHT22;42641;59.794;17.616;2023-11-18T10:15:35;-1.70;99.90
56771;DHT22;42641;59.794;17.616;2023-11-18T10:18:03;-1.70;99.90
56771;DHT22;42641;59.794;17.616;2023-11-18T10:23:15;-1.50;99.90
56771;DHT22;42641;59.794;17.616;2023-11-18T10:25:58;-1.40;99.90
56771;DHT22;42641;59.794;17.616;2023-11-18T10:28:25;-1.30;99.90
56771;DHT22;42641;59.794;17.616;2023-11-18T10:30:56;-1.10;99.90
56771;DHT22;42641;59.794;17.616;2023-11-18T10:36:04;-1.00;99.90
56771;DHT22;42641;59.794;17.616;2023-11-18T10:38:38;-0.80;99.90
56771;DHT22;42641;59.794;17.616;2023-11-18T10:41:09;-0.90;99.90
56771;DHT22;42641;59.794;17.616;2023-11-18T10:43:38;-1.00;99.90
56771;DHT22;42641;59.794;17.616;2023-11-18T10:48:47;-0.90;99.90
56771;DHT22;42641;59.794;17.616;2023-11-18T11:41:13;-1.30;99.90
56771;DHT22;42641;59.794;17.616;2023-11-18T11:46:59;-1.30;99.90
56771;DHT22;42641;59.794;17.616;2023-11-18T11:49:44;-1.20;99.90
56771;DHT22;42641;59.794;17.616;2023-11-18T11:52:23;-1.20;99.90
56771;DHT22;42641;59.794;17.616;2023-11-18T11:55:13;-1.10;99.90
56771;DHT22;42641;59.794;17.616;2023-11-18T11:57:41;-1.20;99.90
56771;DHT22;42641;59.794;17.616;2023-11-18T12:00:12;-1.20;99.90
56771;DHT22;42641;59.794;17.616;2023-11-18T12:02:52;-1.20;99.90
56771;DHT22;42641;59.794;17.616;2023-11-18T12:05:25;-1.20;99.90
56771;DHT22;42641;59.794;17.616;2023-11-18T12:07:52;-1.40;99.90
56771;DHT22;42641;59.794;17.616;2023-11-18T12:10:31;-1.30;99.90
56771;DHT22;42641;59.794;17.616;2023-11-18T12:13:11;-1.10;99.90
56771;DHT22;42641;59.794;17.616;2023-11-18T12:15:55;-1.00;99.90
56771;DHT22;42641;59.794;17.616;2023-11-18T12:18:30;-1.00;99.90
56771;DHT22;42641;59.794;17.616;2023-11-18T12:21:03;-1.00;99.90
56771;DHT22;42641;59.794;17.616;2023-11-18T12:23:30;-1.00;99.90
56771;DHT22;42641;59.794;17.616;2023-11-18T12:26:01;-1.00;99.90
56771;DHT22;42641;59.794;17.616;2023-11-18T12:28:30;-1.10;99.90
56771;DHT22;42641;59.794;17.616;2023-11-18T12:31:01;-1.20;99.90
56771;DHT22;42641;59.794;17.616;2023-11-18T12:39:33;-1.20;99.90
56771;DHT22;42641;59.794;17.616;2023-11-18T12:42:07;-1.10;99.90
56771;DHT22;42641;59.794;17.616;2023-11-18T12:47:33;-1.30;99.90
56771;DHT22;42641;59.794;17.616;2023-11-18T12:50:09;-1.40;99.90
56771;DHT22;42641;59.794;17.616;2023-11-18T12:52:44;-1.40;99.90
56771;DHT22;42641;59.794;17.616;2023-11-18T12:55:13;-1.50;99.90
56771;DHT22;42641;59.794;17.616;2023-11-18T12:57:48;-1.50;99.90
56771;DHT22;42641;59.794;17.616;2023-11-18T13:00:19;-1.50;99.90
56771;DHT22;42641;59.794;17.616;2023-11-18T13:02:53;-1.50;99.90
56771;DHT22;42641;59.794;17.616;2023-11-18T13:05:20;-1.50;99.90
56771;DHT22;42641;59.794;17.616;2023-11-18T13:07:47;-1.60;99.90
56771;DHT22;42641;59.794;17.616;2023-11-18T13:10:17;-1.60;99.90
56771;DHT22;42641;59.794;17.616;2023-11-18T13:12:44;-1.60;99.90
56771;DHT22;42641;59.794;17.616;2023-11-18T13:15:12;-1.60;99.90
56771;DHT22;42641;59.794;17.616;2023-11-18T13:17:38;-1.50;99.90
56771;DHT22;42641;59.794;17.616;2023-11-18T13:20:13;-1.40;99.90
56771;DHT22;42641;59.794;17.616;2023-11-18T13:22:42;-1.40;99.90
56771;DHT22;42641;59.794;17.616;2023-11-18T13:25:08;-1.30;99.90
56771;DHT22;42641;59.794;17.616;2023-11-18T13:27:35;-1.30;99.90
56771;DHT22;42641;59.794;17.616;2023-11-18T13:30:02;-1.40;99.90
56771;DHT22;42641;59.794;17.616;2023-11-18T13:32:31;-1.40;99.90
56771;DHT22;42641;59.794;17.616;2023-11-18T13:34:57;-1.30;99.90
56771;DHT22;42641;59.794;17.616;2023-11-18T13:37:27;-1.40;99.90
56771;DHT22;42641;59.794;17.616;2023-11-18T13:39:57;-1.50;99.90
56771;DHT22;42641;59.794;17.616;2023-11-18T13:42:27;-1.60;99.90
56771;DHT22;42641;59.794;17.616;2023-11-18T13:45:03;-1.70;99.90
56771;DHT22;42641;59.794;17.616;2023-11-18T13:47:37;-1.80;99.90
56771;DHT22;42641;59.794;17.616;2023-11-18T13:50:08;-1.80;99.90
56771;DHT22;42641;59.794;17.616;2023-11-18T13:52:35;-1.80;99.90
56771;DHT22;42641;59.794;17.616;2023-11-18T13:55:06;-1.80;99.90
56771;DHT22;42641;59.794;17.616;2023-11-18T13:57:33;-1.80;99.90
56771;DHT22;42641;59.794;17.616;2023-11-18T14:00:00;-1.90;99.90
56771;DHT22;42641;59.794;17.616;2023-11-18T14:02:27;-2.00;99.90
56771;DHT22;42641;59.794;17.616;2023-11-18T14:04:54;-2.10;99.90
56771;DHT22;42641;59.794;17.616;2023-11-18T14:07:23;-2.10;99.90
56771;DHT22;42641;59.794;17.616;2023-11-18T14:09:50;-2.10;99.90
56771;DHT22;42641;59.794;17.616;2023-11-18T14:12:20;-2.20;99.90
56771;DHT22;42641;59.794;17.616;2023-11-18T14:14:48;-2.30;99.90
56771;DHT22;42641;59.794;17.616;2023-11-18T14:17:15;-2.30;99.90
56771;DHT22;42641;59.794;17.616;2023-11-18T14:19:42;-2.30;99.90
56771;DHT22;42641;59.794;17.616;2023-11-18T14:22:09;-2.30;99.90
56771;DHT22;42641;59.794;17.616;2023-11-18T14:24:35;-2.20;99.90
56771;DHT22;42641;59.794;17.616;2023-11-18T14:27:02;-2.20;99.90
56771;DHT22;42641;59.794;17.616;2023-11-18T14:29:30;-2.10;99.90
56771;DHT22;42641;59.794;17.616;2023-11-18T14:31:57;-2.10;99.90
56771;DHT22;42641;59.794;17.616;2023-11-18T14:34:24;-2.20;99.90
56771;DHT22;42641;59.794;17.616;2023-11-18T14:36:51;-2.20;99.90
56771;DHT22;42641;59.794;17.616;2023-11-18T14:39:18;-2.30;99.90
56771;DHT22;42641;59.794;17.616;2023-11-18T14:41:48;-2.30;99.90
56771;DHT22;42641;59.794;17.616;2023-11-18T14:44:16;-2.20;99.90
56771;DHT22;42641;59.794;17.616;2023-11-18T14:46:44;-2.20;99.90
56771;DHT22;42641;59.794;17.616;2023-11-18T14:49:11;-2.20;99.90
56771;DHT22;42641;59.794;17.616;2023-11-18T14:51:38;-2.20;99.90
56771;DHT22;42641;59.794;17.616;2023-11-18T14:54:04;-2.10;99.90
56771;DHT22;42641;59.794;17.616;2023-11-18T14:56:34;-2.10;99.90
56771;DHT22;42641;59.794;17.616;2023-11-18T14:59:01;-2.10;99.90
56771;DHT22;42641;59.794;17.616;2023-11-18T15:01:27;-2.10;99.90
56771;DHT22;42641;59.794;17.616;2023-11-18T15:03:55;-2.20;99.90
56771;DHT22;42641;59.794;17.616;2023-11-18T15:06:26;-2.30;99.90
56771;DHT22;42641;59.794;17.616;2023-11-18T15:08:52;-2.40;99.90
56771;DHT22;42641;59.794;17.616;2023-11-18T15:11:23;-2.40;99.90
56771;DHT22;42641;59.794;17.616;2023-11-18T15:13:51;-2.50;99.90
56771;DHT22;42641;59.794;17.616;2023-11-18T15:16:19;-2.60;99.90
56771;DHT22;42641;59.794;17.616;2023-11-18T15:18:46;-2.50;99.90
56771;DHT22;42641;59.794;17.616;2023-11-18T15:21:18;-2.60;99.90
56771;DHT22;42641;59.794;17.616;2023-11-18T15:23:44;-2.60;99.90
56771;DHT22;42641;59.794;17.616;2023-11-18T15:26:11;-2.70;99.90
56771;DHT22;42641;59.794;17.616;2023-11-18T15:28:38;-2.70;99.90
56771;DHT22;42641;59.794;17.616;2023-11-18T15:31:04;-2.70;99.90
56771;DHT22;42641;59.794;17.616;2023-11-18T15:33:31;-2.70;99.90
56771;DHT22;42641;59.794;17.616;2023-11-18T15:35:57;-2.60;99.90
56771;DHT22;42641;59.794;17.616;2023-11-18T15:38:24;-2.60;99.90
56771;DHT22;42641;59.794;17.616;2023-11-18T15:40:53;-2.60;99.90
56771;DHT22;42641;59.794;17.616;2023-11-18T15:43:21;-2.60;99.90
56771;DHT22;42641;59.794;17.616;2023-11-18T15:45:47;-2.60;99.90
56771;DHT22;42641;59.794;17.616;2023-11-18T15:48:14;-2.60;99.90
56771;DHT22;42641;59.794;17.616;2023-11-18T15:50:40;-2.50;99.90
56771;DHT22;42641;59.794;17.616;2023-11-18T15:53:07;-2.50;99.90
56771;DHT22;42641;59.794;17.616;2023-11-18T15:55:34;-2.40;99.90
56771;DHT22;42641;59.794;17.616;2023-11-18T15:58:03;-2.40;99.90
56771;DHT22;42641;59.794;17.616;2023-11-18T16:00:30;-2.40;99.90
56771;DHT22;42641;59.794;17.616;2023-11-18T16:02:57;-2.40;99.90
56771;DHT22;42641;59.794;17.616;2023-11-18T16:05:26;-2.50;99.90
56771;DHT22;42641;59.794;17.616;2023-11-18T16:07:54;-2.60;99.90
56771;DHT22;42641;59.794;17.616;2023-11-18T16:10:25;-2.50;99.90
56771;DHT22;42641;59.794;17.616;2023-11-18T16:12:57;-2.50;99.90
56771;DHT22;42641;59.794;17.616;2023-11-18T16:15:28;-2.60;99.90
56771;DHT22;42641;59.794;17.616;2023-11-18T16:17:59;-2.60;99.90
56771;DHT22;42641;59.794;17.616;2023-11-18T16:20:28;-2.60;99.90
56771;DHT22;42641;59.794;17.616;2023-11-18T16:22:58;-2.60;99.90
56771;DHT22;42641;59.794;17.616;2023-11-18T16:25:29;-2.60;99.90
56771;DHT22;42641;59.794;17.616;2023-11-18T16:28:00;-2.70;99.90
56771;DHT22;42641;59.794;17.616;2023-11-18T16:30:28;-2.70;99.90
56771;DHT22;42641;59.794;17.616;2023-11-18T16:32:59;-2.70;99.90
56771;DHT22;42641;59.794;17.616;2023-11-18T16:35:33;-2.70;99.90
56771;DHT22;42641;59.794;17.616;2023-11-18T16:37:59;-2.70;99.90
56771;DHT22;42641;59.794;17.616;2023-11-18T16:40:26;-2.70;99.90
56771;DHT22;42641;59.794;17.616;2023-11-18T16:42:54;-2.80;99.90
56771;DHT22;42641;59.794;17.616;2023-11-18T16:45:25;-2.80;99.90
56771;DHT22;42641;59.794;17.616;2023-11-18T16:47:53;-2.80;99.90
56771;DHT22;42641;59.794;17.616;2023-11-18T16:50:20;-2.90;99.90
56771;DHT22;42641;59.794;17.616;2023-11-18T16:52:48;-3.00;99.90
56771;DHT22;42641;59.794;17.616;2023-11-18T16:55:15;-3.10;99.90
56771;DHT22;42641;59.794;17.616;2023-11-18T16:57:41;-3.20;99.90
56771;DHT22;42641;59.794;17.616;2023-11-18T17:00:10;-3.20;99.90
56771;DHT22;42641;59.794;17.616;2023-11-18T17:02:46;-3.30;99.90
56771;DHT22;42641;59.794;17.616;2023-11-18T17:05:13;-3.30;99.90
56771;DHT22;42641;59.794;17.616;2023-11-18T17:07:40;-3.40;99.90
56771;DHT22;42641;59.794;17.616;2023-11-18T17:10:06;-3.40;99.90
56771;DHT22;42641;59.794;17.616;2023-11-18T17:12:38;-3.40;99.90
56771;DHT22;42641;59.794;17.616;2023-11-18T17:15:06;-3.50;99.90
56771;DHT22;42641;59.794;17.616;2023-11-18T17:17:33;-3.50;99.90
56771;DHT22;42641;59.794;17.616;2023-11-18T17:20:00;-3.50;99.90
56771;DHT22;42641;59.794;17.616;2023-11-18T17:22:26;-3.50;99.90
56771;DHT22;42641;59.794;17.616;2023-11-18T17:24:53;-3.40;99.90
56771;DHT22;42641;59.794;17.616;2023-11-18T17:27:21;-3.40;99.90
56771;DHT22;42641;59.794;17.616;2023-11-18T17:29:48;-3.50;99.90
56771;DHT22;42641;59.794;17.616;2023-11-18T17:32:14;-3.40;99.90
56771;DHT22;42641;59.794;17.616;2023-11-18T17:34:40;-3.40;99.90
56771;DHT22;42641;59.794;17.616;2023-11-18T17:37:08;-3.40;99.90